Terminal Aerodrome Forecast
Issued by NWS Blacksburg, VA

Current Version | Previous Version | Graphics & Text | Print | Product List | Glossary On
Versions: 1 2 3 4 5 6 7 8 9 10 11 12 13 14 15 16 17 18 19 20 21 22 23 24 25 26 27 28 29 30 31 32 33 34 35 36 37 38
000
FTUS41 KRNK 151128 AAB
TAFBLF
TAF AMD
KBLF 151128Z 1511/1612 28006KT P6SM FEW008
     FM151600 25012KT P6SM FEW035
     FM160100 29008KT 6SM -SHRA OVC035
     FM160700 31008KT P6SM OVC010=

USA.gov is the U.S. government's official web portal to all federal, state and local government web resources and services.